ADDS METAR Data INFO
IDs: Format: Raw Decoded Include TAF

Data at: 1749 UTC 15 Dec 2017

PADE 151708Z AUTO 20005KT 10SM SCT005 OVC038 M09/M11 A2951 RMK AO2 T10941111 TSNO $
PADE 151653Z AUTO 00000KT 10SM OVC040 M09/M11 A2951 RMK AO2 SLP995 I1000 T10891106 TSNO $
PADE 151635Z AUTO 00000KT 8SM OVC040 M09/M11 A2952 RMK AO2 I1000 T10941111 TSNO $
PADE 151627Z AUTO 00000KT 2SM BR OVC040 M09/M11 A2953 RMK AO2 I1000 T10941106 TSNO $
PADE 151600Z AUTO 00000KT 3/4SM BR SCT004 OVC043 M09/M11 A2953 RMK AO2 T10941111 TSNO $
PADE 151553Z AUTO 00000KT 1 1/4SM BR BKN004 OVC043 M09/M11 A2953 RMK AO2 SLP001 T10941111 TSNO $
PADE 151550Z AUTO 00000KT 1 3/4SM BR OVC004 M09/M11 A2953 RMK AO2 TSNO $
PADE 151453Z AUTO 06004KT 10SM BKN004 M09/M11 A2954 RMK AO2 SLP004 T10941111 56013 TSNO $
PADE 151438Z AUTO 04005KT 10SM SCT005 BKN055 M08/M10 A2955 RMK AO2 T10831100 TSNO $
PADE 151353Z AUTO 02005KT 10SM FEW024 BKN060 M09/M12 A2955 RMK AO2 SLP008 T10941117 TSNO $
PADE 151345Z AUTO 02003KT 10SM SCT025 M09/M12 A2955 RMK AO2 T10941122 TSNO $
PADE 151253Z AUTO 00000KT 10SM OVC026 M07/M10 A2956 RMK AO2 SLP011 T10671100 TSNO $
PADE 151153Z AUTO 08006KT 10SM OVC026 M06/M09 A2958 RMK AO2 SLP017 T10561094 11050 21078 58003 TSNO $
PADE 151117Z AUTO 06005KT 10SM FEW021 OVC028 M07/M10 A2959 RMK AO2 T10721100 TSNO $
PADE 151108Z AUTO 03004KT 10SM SCT021 OVC030 M07/M10 A2959 RMK AO2 T10671100 TSNO $
PADE 151053Z AUTO 00000KT 10SM BKN023 OVC030 M07/M10 A2959 RMK AO2 SLP020 T10721100 TSNO $
PADE 151017Z AUTO 00000KT 10SM OVC029 M07/M10 A2959 RMK AO2 T10671100 TSNO $
PADE 150953Z AUTO 00000KT 10SM OVC032 M07/M10 A2959 RMK AO2 SLP021 T10671100 TSNO $
PADE 150853Z AUTO 35004KT 10SM OVC031 M06/M09 A2959 RMK AO2 SLP019 T10611094 400171106 53005 TSNO $
PADE 150753Z AUTO 15009KT 10SM OVC034 M06/M10 A2958 RMK AO2 SLP019 T10561100 TSNO $
PADE 150653Z AUTO 13010KT 10SM OVC037 M06/M11 A2958 RMK AO2 SLP015 T10611106 TSNO $
PADE 150553Z AUTO 14010KT 10SM OVC040 M07/M11 A2957 RMK AO2 SLP015 T10671111 11028 21106 51007 TSNO $
PADE 150353Z AUTO 19007KT 10SM BKN036 M07/M12 A2956 RMK AO2 SLP011 T10721122 TSNO $
PADE 150253Z AUTO 17012KT 10SM CLR M06/M12 A2955 RMK AO2 SLP007 T10611117 52007 TSNO $
PADE 150153Z AUTO 21009KT 10SM SCT050 M07/M13 A2954 RMK AO2 SLP005 T10671128 TSNO $
PADE 150053Z AUTO 18011KT 10SM OVC047 M04/M08 A2954 RMK AO2 SLP003 T10391078 TSNO $
PADE 142353Z AUTO 16008KT 10SM OVC033 M03/M07 A2953 RMK AO2 SLP000 T10281067 11011 21056 51013 TSNO $
PADE 142253Z AUTO 15009KT 10SM FEW021 OVC031 M03/M07 A2952 RMK AO2 SLP997 T10331067 TSNO $
PADE 142246Z AUTO 14011KT 10SM SCT019 OVC032 M04/M07 A2952 RMK AO2 T10391067 TSNO $
PADE 142053Z AUTO 16004KT 10SM OVC018 M04/M07 A2949 RMK AO2 SLP988 T10391072 53015 TSNO $
PADE 141953Z AUTO 15011KT 10SM OVC017 M04/M07 A2947 RMK AO2 SLP980 T10391067 TSNO $
PADE 141941Z AUTO 00000KT 10SM BKN017 M03/M06 A2947 RMK AO2 T10331061 TSNO $
PADE 141916Z AUTO 15006KT 10SM SCT017 M03/M06 A2946 RMK AO2 T10331061 TSNO $
PADE 141906Z AUTO 17004KT 10SM BKN016 M03/M06 A2946 RMK AO2 T10281061 TSNO $
PADE 141853Z AUTO 16004KT 10SM FEW017 SCT044 M03/M06 A2947 RMK AO2 SLP978 T10331061 TSNO $
PADE 141653Z AUTO 20007KT 10SM OVC035 01/M02 A2944 RMK AO2 SNB07E17 SLP969 P0000 T00061022 TSNO $
PADE 141645Z AUTO 20009KT 10SM OVC033 01/M02 A2944 RMK AO2 SNB07E17 P0000 T00061022 TSNO $
PADE 141553Z AUTO 19014KT 10SM OVC027 01/M02 A2941 RMK AO2 SNE23 SLP959 P0000 T00111017 TSNO $
PADE 141500Z AUTO 20007KT 4SM -SN BR OVC018 01/M01 A2941 RMK AO2 P0000 T00111006 TSNO $
PADE 141453Z AUTO 22006KT 5SM -SN BR SCT017 OVC031 01/M01 A2940 RMK AO2 SNB04 SLP957 P0000 60000 T00111006 51013 TSNO $
PADE 141431Z AUTO 22009KT 9SM -SN FEW015 BKN043 OVC070 01/M01 A2940 RMK AO2 SNB04 P0000 T00061011 TSNO $
PADE 141253Z AUTO VRB03KT 7SM -SN OVC013 01/M01 A2938 RMK AO2 SLP949 P0000 T00111006 TSNO $
PADE 141217Z AUTO 22004KT 7SM -SN OVC014 01/M01 A2937 RMK AO2 P0000 T00061006 TSNO $
PADE 141124Z AUTO 22007KT 8SM -SN BKN021 OVC045 02/00 A2936 RMK AO2 P0000 T00170000 TSNO $
PADE 141103Z AUTO 18009KT 8SM -SN FEW028 BKN046 OVC065 02/00 A2935 RMK AO2 P0000 T00170000 TSNO $
PADE 141053Z AUTO 16008KT 7SM -SN BKN028 OVC046 01/00 A2935 RMK AO2 SLP938 P0000 T00110000 TSNO $
PADE 141046Z AUTO 15008KT 5SM -SN BR OVC028 01/00 A2935 RMK AO2 P0000 T00110000 TSNO $
PADE 141026Z AUTO 14012KT 2 1/2SM -SN BR OVC028 01/00 A2934 RMK AO2 P0000 T00110000 TSNO $
PADE 140953Z AUTO 13010KT 6SM -SN BR FEW015 BKN038 OVC050 01/M01 A2934 RMK AO2 SLP937 P0000 T00111006 TSNO $
PADE 140939Z AUTO 13007KT 5SM -SN BR FEW027 OVC034 01/M01 A2934 RMK AO2 P0000 T00111006 TSNO $
PADE 140900Z AUTO 14006KT 3SM -SN BR OVC025 01/00 A2934 RMK AO2 P0000 T00110000 TSNO $
PADE 140853Z AUTO 13009KT 2 1/2SM -SN BR OVC027 01/00 A2934 RMK AO2 SLP936 P0000 60000 T00110000 400331011 55002 TSNO $
PADE 140833Z AUTO 09003KT 2 1/2SM -SN BR OVC031 01/M01 A2934 RMK AO2 P0000 T00111006 TSNO $
PADE 140753Z AUTO 13005KT 2SM -SN BR OVC027 01/M01 A2934 RMK AO2 SLP935 P0000 T00111006 TSNO $
PADE 140719Z AUTO 11004KT 7SM -SN OVC014 01/M01 A2934 RMK AO2 P0000 T00061006 TSNO $
PADE 140709Z AUTO 11003KT 5SM -SN BR FEW009 OVC016 01/M01 A2934 RMK AO2 P0000 T00061006 TSNO $
PADE 140639Z AUTO 00000KT 1 3/4SM -SN BR OVC008 01/M01 A2934 RMK AO2 P0000 T00061006 TSNO $
PADE 140629Z AUTO 00000KT 1 3/4SM -SN BR BKN005 OVC010 00/M01 A2934 RMK AO2 P0000 T00001011 TSNO $
PADE 140623Z AUTO 00000KT 2 1/2SM -SN BR SCT003 OVC010 01/M01 A2934 RMK AO2 P0000 T00061006 TSNO $
PADE 140604Z AUTO 05003KT 3SM -SN BR BKN003 BKN008 OVC024 00/M01 A2934 RMK AO2 P0000 T00001011 TSNO $
PADE 140553Z AUTO 07003KT 3SM -SN BR FEW003 BKN009 OVC035 01/M01 A2934 RMK AO2 SLP937 P0000 60001 T00061006 10011 20000 58006 TSNO $